Waco's Hourly Summary for Friday, April 14, 2017
Hour Temp
(f)
RH
(%)
Solar Rad.
(MJ/m2)
Rainfall
(in)
Wind
(mph)
4/14/2017 12:00 AM 66 63 0 0 2.06
4/14/2017 1:00 AM 64 67 0 0 0.78
4/14/2017 2:00 AM 65 76 0 0 2.9
4/14/2017 3:00 AM 65 77 0 0 3.72
4/14/2017 4:00 AM 63 80 0 0 2.35
4/14/2017 5:00 AM 62 85 0 0 1.16
4/14/2017 6:00 AM 61 89 0 0 0.73
4/14/2017 7:00 AM 60 90 0 0 0.38
4/14/2017 8:00 AM 60 92 0.05 0 1.43
4/14/2017 9:00 AM 62 92 0.19 0 1.42
4/14/2017 10:00 AM 64 92 0.55 0 2.68
4/14/2017 11:00 AM 67 78 1.06 0 4.44
4/14/2017 12:00 PM 72 64 2.33 0 5.59
4/14/2017 1:00 PM 75 56 2.69 0 5.91
4/14/2017 2:00 PM 76 52 2.62 0 6.19
4/14/2017 3:00 PM 78 48 2.97 0 6.43
4/14/2017 4:00 PM 80 48 2.46 0 5.54
4/14/2017 5:00 PM 80 49 1.82 0 4.82
4/14/2017 6:00 PM 78 52 1.17 0 5.23
4/14/2017 7:00 PM 78 53 0.62 0 3.52
4/14/2017 8:00 PM 75 58 0.1 0 3.29
4/14/2017 9:00 PM 73 63 0 0 3.4
4/14/2017 10:00 PM 71 70 0 0 4.1
4/14/2017 11:00 PM 69 72 0 0 3.3
Data Summary 69 69 18.63 0.00 3.39